Time;durP1;ratioP1;P1;durP2;ratioP2;P2;SDS_P1;SDS_P2;PMS_P1;PMS_P2;Temp;Humidity;BMP_temperature;BMP_pressure;BME280_temperature;BME280_humidity;BME280_pressure;Samples;Min_cycle;Max_cycle;Signal;HPM_P1;HPM_P2
2023/06/02 00:09:07;;;;;;;;;;;17.60;70.70;;;;;;20918901;28;19929;-57
2023/06/02 00:19:11;;;;;;;;;;;17.50;70.50;;;;;;20918539;28;19960;-57
2023/06/02 00:29:11;;;;;;;;;;;17.40;71.10;;;;;;20917300;28;19939;-57
2023/06/02 00:39:12;;;;;;;;;;;17.40;71.30;;;;;;20917714;28;20401;-57
2023/06/02 00:49:13;;;;;;;;;;;17.40;71.00;;;;;;20915859;28;20307;-58
2023/06/02 00:59:14;;;;;;;;;;;17.30;71.20;;;;;;20916179;28;19925;-57
2023/06/02 01:09:16;;;;;;;;;;;17.20;71.30;;;;;;20915517;28;19968;-58
2023/06/02 01:19:20;;;;;;;;;;;17.20;71.10;;;;;;20913557;28;19975;-57
2023/06/02 01:29:21;;;;;;;;;;;17.10;71.70;;;;;;20912820;28;19925;-58
2023/06/02 01:39:22;;;;;;;;;;;17.10;71.60;;;;;;20911982;28;19971;-57
2023/06/02 01:49:22;;;;;;;;;;;17.10;72.00;;;;;;20912697;28;20413;-57
2023/06/02 01:59:23;;;;;;;;;;;17.10;71.60;;;;;;20910964;28;19925;-57
2023/06/02 02:09:24;;;;;;;;;;;17.10;71.30;;;;;;20911591;28;19925;-57
2023/06/02 02:19:24;;;;;;;;;;;17.00;72.20;;;;;;20911384;28;19932;-60
2023/06/02 02:29:25;;;;;;;;;;;16.90;72.40;;;;;;20919903;28;19931;-57
2023/06/02 02:39:26;;;;;;;;;;;17.00;72.30;;;;;;20926635;28;19925;-59
2023/06/02 02:49:26;;;;;;;;;;;16.90;72.70;;;;;;20926188;28;19924;-56
2023/06/02 02:59:27;;;;;;;;;;;16.80;72.40;;;;;;20925570;28;19924;-57
2023/06/02 03:09:28;;;;;;;;;;;16.90;72.00;;;;;;20923420;28;19936;-57
2023/06/02 03:19:29;;;;;;;;;;;16.90;71.80;;;;;;20923573;28;19968;-56
2023/06/02 03:29:30;;;;;;;;;;;16.90;71.80;;;;;;20922788;28;19925;-58
2023/06/02 03:39:30;;;;;;;;;;;17.00;71.20;;;;;;20919662;28;19925;-56
2023/06/02 03:49:31;;;;;;;;;;;17.00;71.50;;;;;;20921395;28;20440;-57
2023/06/02 03:59:33;;;;;;;;;;;16.90;72.10;;;;;;20920566;28;20404;-57
2023/06/02 04:09:34;;;;;;;;;;;17.00;71.80;;;;;;20919742;28;19981;-58
2023/06/02 04:19:35;;;;;;;;;;;17.00;71.80;;;;;;20917917;28;20035;-58
2023/06/02 04:29:37;;;;;;;;;;;16.90;72.40;;;;;;20918751;28;19925;-57
2023/06/02 04:39:37;;;;;;;;;;;16.90;72.20;;;;;;20918030;28;20007;-57
2023/06/02 04:49:38;;;;;;;;;;;16.90;71.80;;;;;;20917756;28;20022;-57
2023/06/02 04:59:39;;;;;;;;;;;16.90;71.50;;;;;;20915847;28;20026;-57
2023/06/02 05:09:40;;;;;;;;;;;16.80;71.60;;;;;;20915429;28;19924;-58
2023/06/02 05:19:41;;;;;;;;;;;16.80;71.40;;;;;;20914533;28;19948;-56
2023/06/02 05:29:42;;;;;;;;;;;16.80;71.60;;;;;;20915639;28;19970;-57
2023/06/02 05:39:43;;;;;;;;;;;16.90;72.20;;;;;;20914329;28;19968;-56
2023/06/02 05:49:43;;;;;;;;;;;17.10;71.50;;;;;;20913974;28;19925;-57
2023/06/02 05:59:45;;;;;;;;;;;16.90;71.70;;;;;;20913800;28;19983;-58
2023/06/02 06:09:46;;;;;;;;;;;17.00;71.60;;;;;;20929280;28;19932;-57
2023/06/02 06:19:47;;;;;;;;;;;17.10;70.50;;;;;;20928772;28;19925;-58
2023/06/02 06:29:47;;;;;;;;;;;17.20;70.00;;;;;;20928928;28;20394;-57
2023/06/02 06:39:48;;;;;;;;;;;17.30;69.70;;;;;;20928070;28;20012;-57
2023/06/02 06:49:51;;;;;;;;;;;17.40;69.40;;;;;;20927255;28;19983;-58
2023/06/02 06:59:52;;;;;;;;;;;17.60;68.70;;;;;;20925808;28;19932;-57
2023/06/02 07:09:53;;;;;;;;;;;17.90;68.20;;;;;;20924278;28;19929;-57
2023/06/02 07:19:54;;;;;;;;;;;18.30;66.30;;;;;;20923298;28;19925;-58
2023/06/02 07:29:54;;;;;;;;;;;18.90;64.40;;;;;;20924061;28;20389;-57
2023/06/02 07:39:55;;;;;;;;;;;19.30;62.50;;;;;;20923883;28;19931;-59
2023/06/02 07:49:55;;;;;;;;;;;19.50;60.40;;;;;;20923145;28;19960;-58
2023/06/02 07:59:56;;;;;;;;;;;19.40;60.40;;;;;;20890610;28;19975;-59
2023/06/02 08:09:57;;;;;;;;;;;19.50;60.40;;;;;;20839158;28;19926;-59
2023/06/02 08:19:58;;;;;;;;;;;19.70;59.90;;;;;;20837646;28;20010;-57
2023/06/02 08:29:59;;;;;;;;;;;20.10;58.40;;;;;;20836318;28;19929;-60
2023/06/02 08:40:00;;;;;;;;;;;20.10;57.40;;;;;;20834908;28;19925;-58
2023/06/02 08:50:02;;;;;;;;;;;20.20;57.10;;;;;;20832777;28;19932;-58
2023/06/02 09:00:04;;;;;;;;;;;20.80;56.20;;;;;;20824359;28;20363;-58
2023/06/02 09:10:06;;;;;;;;;;;21.00;54.60;;;;;;20827356;28;19932;-56
2023/06/02 09:20:11;;;;;;;;;;;21.00;54.10;;;;;;20823668;28;20279;-58
2023/06/02 09:30:13;;;;;;;;;;;21.20;54.20;;;;;;20828653;28;20329;-58
2023/06/02 09:40:26;;;;;;;;;;;21.60;54.00;;;;;;20831350;28;20016;-57
2023/06/02 09:50:30;;;;;;;;;;;21.70;53.80;;;;;;20831269;28;19991;-58
2023/06/02 10:00:31;;;;;;;;;;;22.10;51.90;;;;;;20829954;28;19995;-58
2023/06/02 10:10:50;;;;;;;;;;;21.90;52.00;;;;;;20830346;28;19926;-57
2023/06/02 10:21:07;;;;;;;;;;;21.90;51.90;;;;;;20828555;28;19925;-57
2023/06/02 10:31:09;;;;;;;;;;;22.10;51.40;;;;;;20830194;28;19925;-57
2023/06/02 10:41:10;;;;;;;;;;;22.20;50.80;;;;;;20828863;28;19925;-57
2023/06/02 10:51:10;;;;;;;;;;;22.30;50.00;;;;;;20838306;28;20362;-57
2023/06/02 11:01:13;;;;;;;;;;;22.40;50.70;;;;;;20843704;28;19925;-57
2023/06/02 11:11:33;;;;;;;;;;;22.20;51.50;;;;;;20840847;28;19977;-58
2023/06/02 11:21:34;;;;;;;;;;;22.40;51.00;;;;;;20838936;28;19932;-59
2023/06/02 11:31:35;;;;;;;;;;;22.60;51.10;;;;;;20839982;28;19925;-59
2023/06/02 11:41:36;;;;;;;;;;;22.80;50.00;;;;;;20838154;28;20010;-57
2023/06/02 11:51:37;;;;;;;;;;;23.00;49.80;;;;;;20838869;28;20012;-57
2023/06/02 12:01:37;;;;;;;;;;;22.80;50.00;;;;;;20835519;28;20404;-58
2023/06/02 12:11:38;;;;;;;;;;;22.90;48.60;;;;;;20835205;28;19925;-59
2023/06/02 12:21:40;;;;;;;;;;;22.90;48.00;;;;;;20834180;28;20417;-57
2023/06/02 12:31:41;;;;;;;;;;;23.10;47.10;;;;;;20834944;28;19948;-57
2023/06/02 12:41:41;;;;;;;;;;;23.40;45.20;;;;;;20833368;28;19925;-57
2023/06/02 12:51:42;;;;;;;;;;;23.90;43.50;;;;;;20834000;28;20371;-58
2023/06/02 13:01:43;;;;;;;;;;;23.70;44.20;;;;;;20832856;28;19929;-57
2023/06/02 13:11:46;;;;;;;;;;;23.70;44.30;;;;;;20831636;28;19925;-58
2023/06/02 13:21:47;;;;;;;;;;;23.60;43.70;;;;;;20830494;28;20012;-57
2023/06/02 13:31:47;;;;;;;;;;;23.60;43.30;;;;;;20829887;28;19933;-58
2023/06/02 13:41:48;;;;;;;;;;;23.70;43.90;;;;;;20830543;28;19932;-57
2023/06/02 13:51:49;;;;;;;;;;;23.90;42.70;;;;;;20829753;28;19986;-58
2023/06/02 14:01:50;;;;;;;;;;;24.00;42.30;;;;;;20830702;28;19997;-60
2023/06/02 14:11:51;;;;;;;;;;;24.30;39.00;;;;;;20829932;28;19929;-58
2023/06/02 14:21:52;;;;;;;;;;;24.70;39.30;;;;;;20831739;28;19925;-57
2023/06/02 14:31:53;;;;;;;;;;;;;;;;;;20845127;28;20010;-56
2023/06/02 14:41:55;;;;;;;;;;;24.70;38.80;;;;;;20841038;28;19936;-58
2023/06/02 14:51:55;;;;;;;;;;;25.00;36.70;;;;;;20835625;28;20005;-57
2023/06/02 15:01:56;;;;;;;;;;;25.20;36.50;;;;;;20838277;28;20015;-57
2023/06/02 15:11:57;;;;;;;;;;;25.10;38.00;;;;;;20842865;28;19925;-57
2023/06/02 15:21:57;;;;;;;;;;;24.80;40.40;;;;;;20840769;28;20011;-56
2023/06/02 15:31:58;;;;;;;;;;;24.70;40.60;;;;;;20839907;28;20016;-61
2023/06/02 15:41:59;;;;;;;;;;;24.50;41.40;;;;;;20840746;28;19932;-63
2023/06/02 15:52:00;;;;;;;;;;;24.60;40.20;;;;;;20840181;28;19975;-61
2023/06/02 16:02:00;;;;;;;;;;;24.70;41.00;;;;;;20907693;28;19948;-60
2023/06/02 16:12:01;;;;;;;;;;;24.70;40.50;;;;;;20904683;28;20022;-59
2023/06/02 16:22:02;;;;;;;;;;;24.80;39.30;;;;;;20903159;28;19925;-57
2023/06/02 16:32:02;;;;;;;;;;;24.70;41.60;;;;;;20908742;28;19925;-62
2023/06/02 16:42:03;;;;;;;;;;;24.70;42.60;;;;;;20906154;28;20039;-58
2023/06/02 16:52:07;;;;;;;;;;;24.40;42.30;;;;;;20902251;28;19928;-58
2023/06/02 17:02:08;;;;;;;;;;;24.40;44.10;;;;;;20912107;28;19924;-58
2023/06/02 17:12:08;;;;;;;;;;;24.10;51.10;;;;;;20913867;28;20396;-58
2023/06/02 17:22:09;;;;;;;;;;;22.80;57.30;;;;;;20903538;28;19947;-60
2023/06/02 17:32:14;;;;;;;;;;;22.60;62.80;;;;;;20906938;28;19980;-60
2023/06/02 17:42:16;;;;;;;;;;;22.70;62.50;;;;;;20901809;28;20444;-56
2023/06/02 17:52:20;;;;;;;;;;;22.60;59.10;;;;;;20909765;28;19928;-57
2023/06/02 18:02:21;;;;;;;;;;;22.70;59.30;;;;;;20902333;28;20362;-58
2023/06/02 18:12:21;;;;;;;;;;;22.70;59.20;;;;;;20888086;28;19925;-58
2023/06/02 18:22:22;;;;;;;;;;;22.60;52.80;;;;;;20881343;28;20453;-59
2023/06/02 18:32:22;;;;;;;;;;;22.30;55.10;;;;;;20895985;28;19928;-58
2023/06/02 18:42:23;;;;;;;;;;;22.00;56.20;;;;;;20906805;28;19940;-61
2023/06/02 18:52:24;;;;;;;;;;;22.00;60.00;;;;;;20885302;28;20370;-61
2023/06/02 19:02:25;;;;;;;;;;;21.90;57.40;;;;;;20904922;28;20018;-60
2023/06/02 19:12:25;;;;;;;;;;;21.60;55.80;;;;;;20911578;28;19924;-59
2023/06/02 19:22:26;;;;;;;;;;;21.80;61.40;;;;;;20912889;28;19924;-57
2023/06/02 19:32:27;;;;;;;;;;;22.20;59.60;;;;;;20922892;28;19925;-56
2023/06/02 19:42:29;;;;;;;;;;;22.20;57.70;;;;;;20921973;28;19925;-60
2023/06/02 19:52:30;;;;;;;;;;;22.20;57.10;;;;;;20921915;28;19951;-59
2023/06/02 20:02:30;;;;;;;;;;;21.30;57.40;;;;;;20920345;28;19924;-60
2023/06/02 20:12:32;;;;;;;;;;;21.10;59.60;;;;;;20919634;28;19975;-61
2023/06/02 20:22:32;;;;;;;;;;;20.80;60.90;;;;;;20919783;28;19971;-61
2023/06/02 20:32:33;;;;;;;;;;;20.60;62.70;;;;;;20918559;28;19929;-60
2023/06/02 20:42:33;;;;;;;;;;;20.40;61.80;;;;;;20918406;28;19974;-60
2023/06/02 20:52:34;;;;;;;;;;;20.20;62.20;;;;;;20916782;28;20378;-60
2023/06/02 21:02:35;;;;;;;;;;;20.20;63.70;;;;;;20914518;28;19929;-60
2023/06/02 21:12:36;;;;;;;;;;;19.70;64.50;;;;;;20914292;28;19932;-60
2023/06/02 21:22:37;;;;;;;;;;;19.40;65.00;;;;;;20911902;28;19925;-60
2023/06/02 21:32:38;;;;;;;;;;;19.30;66.30;;;;;;20914436;28;19931;-60
2023/06/02 21:42:38;;;;;;;;;;;19.20;67.60;;;;;;20913801;28;20020;-60
2023/06/02 21:52:39;;;;;;;;;;;19.10;68.20;;;;;;20912217;28;19990;-59
2023/06/02 22:02:40;;;;;;;;;;;19.00;68.60;;;;;;20912949;28;19925;-60
2023/06/02 22:12:40;;;;;;;;;;;18.90;68.70;;;;;;20911264;28;19929;-59
2023/06/02 22:22:41;;;;;;;;;;;18.80;68.50;;;;;;20912825;28;20366;-60
2023/06/02 22:32:42;;;;;;;;;;;18.80;68.00;;;;;;20911985;28;20012;-61
2023/06/02 22:42:42;;;;;;;;;;;18.80;66.30;;;;;;20914282;28;19994;-60
2023/06/02 22:52:43;;;;;;;;;;;18.70;66.40;;;;;;20927203;28;19925;-59
2023/06/02 23:02:43;;;;;;;;;;;18.70;67.10;;;;;;20926305;28;19929;-59
2023/06/02 23:12:44;;;;;;;;;;;18.60;67.00;;;;;;20925570;28;19964;-60
2023/06/02 23:22:45;;;;;;;;;;;18.50;67.30;;;;;;20924604;28;19987;-60
2023/06/02 23:32:46;;;;;;;;;;;18.40;67.40;;;;;;20924059;28;19948;-59
2023/06/02 23:42:58;;;;;;;;;;;18.60;66.90;;;;;;20923179;28;20008;-61
2023/06/02 23:52:59;;;;;;;;;;;18.60;67.00;;;;;;20921730;28;19978;-60
